CheckWX is a tool to help pilots better visualize weather data.  It is not intended as a substitute for an official pre-flight weather briefing.

02:09:12 UTC

HRYR METAR
Kigali International Airport
Kigali, Rwanda
Current

39 mins ago

HRYR 180130Z 35002KT 9999 FEW026 SCT100 17/15 Q1019 NOSIG
Observed
Feb-18 @ 01:30 UTC
Wind
  • 350° at 2 KTS
Visibility
10,000+ meters
Flight Rules
VFR
Cloud Levels
  • Few at 2,600' AGL
  • Scattered at 10,000' AGL
Temperature
17°C / 63°F
Dewpoint
15°C / 59°F
Humidity
88%
Altimeter
30.09" Hg
Pressure
1018.92 hPa
Previous

1 hour ago

HRYR 180100Z VRB01KT 9999 SCT025 SCT100 17/15 Q1019 NOSIG
Observed
Feb-18 @ 01:00 UTC
Wind
  • Variable at 1 KTS
Visibility
10,000+ meters
Flight Rules
VFR
Cloud Levels
  • Scattered at 2,500' AGL
  • Scattered at 10,000' AGL
Temperature
17°C / 63°F
Dewpoint
15°C / 59°F
Humidity
88%
Altimeter
30.09" Hg
Pressure
1018.92 hPa
Previous

2 hours ago

HRYR 180030Z 18002KT 9999 SCT025 SCT100 17/16 Q1020 NOSIG
Observed
Feb-18 @ 00:30 UTC
Wind
  • 180° at 2 KTS
Visibility
10,000+ meters
Flight Rules
VFR
Cloud Levels
  • Scattered at 2,500' AGL
  • Scattered at 10,000' AGL
Temperature
17°C / 63°F
Dewpoint
16°C / 61°F
Humidity
94%
Altimeter
30.12" Hg
Pressure
1019.92 hPa